sensor_id;sensor_type;location;lat;lon;timestamp;P1;durP1;ratioP1;P2;durP2;ratioP2
52614;SDS011;38508;53.158;6.614;2022-12-07T00:00:41;14.38;;;4.47;;
52614;SDS011;38508;53.158;6.614;2022-12-07T00:03:06;9.35;;;4.60;;
52614;SDS011;38508;53.158;6.614;2022-12-07T00:05:32;7.45;;;4.90;;
52614;SDS011;38508;53.158;6.614;2022-12-07T00:07:58;11.60;;;4.28;;
52614;SDS011;38508;53.158;6.614;2022-12-07T00:10:23;9.35;;;4.30;;
52614;SDS011;38508;53.158;6.614;2022-12-07T00:12:49;12.20;;;4.30;;
52614;SDS011;38508;53.158;6.614;2022-12-07T00:15:15;12.88;;;4.60;;
52614;SDS011;38508;53.158;6.614;2022-12-07T00:17:41;10.13;;;4.20;;
52614;SDS011;38508;53.158;6.614;2022-12-07T00:20:06;6.50;;;4.18;;
52614;SDS011;38508;53.158;6.614;2022-12-07T00:22:32;13.95;;;4.28;;
52614;SDS011;38508;53.158;6.614;2022-12-07T00:24:58;4.72;;;4.30;;
52614;SDS011;38508;53.158;6.614;2022-12-07T00:27:24;7.35;;;3.83;;
52614;SDS011;38508;53.158;6.614;2022-12-07T00:29:49;4.93;;;3.17;;
52614;SDS011;38508;53.158;6.614;2022-12-07T00:32:15;7.78;;;3.60;;
52614;SDS011;38508;53.158;6.614;2022-12-07T00:34:40;6.00;;;3.63;;
52614;SDS011;38508;53.158;6.614;2022-12-07T00:37:06;8.40;;;3.72;;
52614;SDS011;38508;53.158;6.614;2022-12-07T00:39:32;4.18;;;3.30;;
52614;SDS011;38508;53.158;6.614;2022-12-07T00:41:57;9.52;;;3.35;;
52614;SDS011;38508;53.158;6.614;2022-12-07T00:44:23;4.30;;;2.83;;
52614;SDS011;38508;53.158;6.614;2022-12-07T00:46:49;3.45;;;2.80;;
52614;SDS011;38508;53.158;6.614;2022-12-07T00:49:14;5.47;;;2.72;;
52614;SDS011;38508;53.158;6.614;2022-12-07T00:51:40;12.65;;;3.25;;
52614;SDS011;38508;53.158;6.614;2022-12-07T00:54:06;9.80;;;3.13;;
52614;SDS011;38508;53.158;6.614;2022-12-07T00:56:31;14.05;;;4.28;;
52614;SDS011;38508;53.158;6.614;2022-12-07T00:59:01;10.63;;;4.60;;
52614;SDS011;38508;53.158;6.614;2022-12-07T01:01:28;8.20;;;4.38;;
52614;SDS011;38508;53.158;6.614;2022-12-07T01:03:56;12.98;;;4.18;;
52614;SDS011;38508;53.158;6.614;2022-12-07T01:06:22;7.45;;;4.53;;
52614;SDS011;38508;53.158;6.614;2022-12-07T01:08:49;11.50;;;4.90;;
52614;SDS011;38508;53.158;6.614;2022-12-07T01:11:16;10.63;;;5.00;;
52614;SDS011;38508;53.158;6.614;2022-12-07T01:13:44;10.88;;;4.25;;
52614;SDS011;38508;53.158;6.614;2022-12-07T01:16:11;8.65;;;5.03;;
52614;SDS011;38508;53.158;6.614;2022-12-07T01:18:39;8.93;;;4.68;;
52614;SDS011;38508;53.158;6.614;2022-12-07T01:21:06;13.68;;;5.35;;
52614;SDS011;38508;53.158;6.614;2022-12-07T01:23:35;7.40;;;4.68;;
52614;SDS011;38508;53.158;6.614;2022-12-07T01:26:02;8.80;;;4.38;;
52614;SDS011;38508;53.158;6.614;2022-12-07T01:28:30;10.25;;;4.53;;
52614;SDS011;38508;53.158;6.614;2022-12-07T01:31:00;5.00;;;4.50;;
52614;SDS011;38508;53.158;6.614;2022-12-07T01:33:31;9.60;;;4.50;;
52614;SDS011;38508;53.158;6.614;2022-12-07T01:36:08;6.20;;;4.30;;
52614;SDS011;38508;53.158;6.614;2022-12-07T01:38:45;13.95;;;4.60;;
52614;SDS011;38508;53.158;6.614;2022-12-07T01:41:12;4.47;;;3.53;;
52614;SDS011;38508;53.158;6.614;2022-12-07T01:46:45;5.32;;;4.00;;
52614;SDS011;38508;53.158;6.614;2022-12-07T01:49:18;9.50;;;4.60;;
52614;SDS011;38508;53.158;6.614;2022-12-07T01:51:45;6.35;;;4.40;;
52614;SDS011;38508;53.158;6.614;2022-12-07T01:54:12;10.07;;;4.53;;
52614;SDS011;38508;53.158;6.614;2022-12-07T01:56:41;6.97;;;4.95;;
52614;SDS011;38508;53.158;6.614;2022-12-07T01:59:14;8.13;;;5.22;;
52614;SDS011;38508;53.158;6.614;2022-12-07T02:01:40;7.00;;;5.40;;
52614;SDS011;38508;53.158;6.614;2022-12-07T02:04:06;13.43;;;5.50;;
52614;SDS011;38508;53.158;6.614;2022-12-07T02:06:32;8.38;;;5.30;;
52614;SDS011;38508;53.158;6.614;2022-12-07T02:08:59;5.68;;;5.15;;
52614;SDS011;38508;53.158;6.614;2022-12-07T02:11:25;7.63;;;5.90;;
52614;SDS011;38508;53.158;6.614;2022-12-07T02:13:51;8.57;;;5.38;;
52614;SDS011;38508;53.158;6.614;2022-12-07T02:16:21;8.52;;;5.00;;
52614;SDS011;38508;53.158;6.614;2022-12-07T02:24:56;10.20;;;5.47;;
52614;SDS011;38508;53.158;6.614;2022-12-07T02:30:21;9.73;;;4.85;;
52614;SDS011;38508;53.158;6.614;2022-12-07T02:33:06;12.68;;;5.03;;
52614;SDS011;38508;53.158;6.614;2022-12-07T02:35:41;10.32;;;4.70;;
52614;SDS011;38508;53.158;6.614;2022-12-07T02:38:24;5.15;;;4.70;;
52614;SDS011;38508;53.158;6.614;2022-12-07T02:40:54;10.52;;;4.95;;
52614;SDS011;38508;53.158;6.614;2022-12-07T02:43:35;11.10;;;4.90;;
52614;SDS011;38508;53.158;6.614;2022-12-07T02:46:08;6.63;;;4.80;;
52614;SDS011;38508;53.158;6.614;2022-12-07T02:48:37;12.60;;;5.88;;
52614;SDS011;38508;53.158;6.614;2022-12-07T02:51:04;14.93;;;5.85;;
52614;SDS011;38508;53.158;6.614;2022-12-07T02:53:34;10.10;;;6.13;;
52614;SDS011;38508;53.158;6.614;2022-12-07T02:56:14;8.73;;;5.78;;
52614;SDS011;38508;53.158;6.614;2022-12-07T03:01:52;12.05;;;5.60;;
52614;SDS011;38508;53.158;6.614;2022-12-07T03:04:40;8.23;;;5.22;;
52614;SDS011;38508;53.158;6.614;2022-12-07T03:07:57;12.23;;;6.20;;
52614;SDS011;38508;53.158;6.614;2022-12-07T03:12:43;10.43;;;5.93;;
52614;SDS011;38508;53.158;6.614;2022-12-07T03:18:35;6.22;;;5.30;;
52614;SDS011;38508;53.158;6.614;2022-12-07T03:21:06;8.65;;;5.72;;
52614;SDS011;38508;53.158;6.614;2022-12-07T03:23:37;9.63;;;5.60;;
52614;SDS011;38508;53.158;6.614;2022-12-07T03:26:05;5.72;;;4.70;;
52614;SDS011;38508;53.158;6.614;2022-12-07T03:28:36;14.10;;;5.53;;
52614;SDS011;38508;53.158;6.614;2022-12-07T03:33:41;8.75;;;4.50;;
52614;SDS011;38508;53.158;6.614;2022-12-07T03:36:20;9.65;;;4.35;;
52614;SDS011;38508;53.158;6.614;2022-12-07T03:38:56;8.48;;;4.50;;
52614;SDS011;38508;53.158;6.614;2022-12-07T03:41:29;10.93;;;5.13;;
52614;SDS011;38508;53.158;6.614;2022-12-07T03:43:58;8.05;;;5.32;;
52614;SDS011;38508;53.158;6.614;2022-12-07T03:57:40;7.35;;;5.70;;
52614;SDS011;38508;53.158;6.614;2022-12-07T04:00:09;10.73;;;5.60;;
52614;SDS011;38508;53.158;6.614;2022-12-07T04:02:35;6.50;;;5.90;;
52614;SDS011;38508;53.158;6.614;2022-12-07T04:05:01;10.90;;;5.32;;
52614;SDS011;38508;53.158;6.614;2022-12-07T04:07:27;10.98;;;5.18;;
52614;SDS011;38508;53.158;6.614;2022-12-07T04:09:53;8.02;;;5.43;;
52614;SDS011;38508;53.158;6.614;2022-12-07T04:12:20;8.40;;;5.20;;
52614;SDS011;38508;53.158;6.614;2022-12-07T04:14:46;9.98;;;4.40;;
52614;SDS011;38508;53.158;6.614;2022-12-07T04:17:12;5.38;;;4.90;;
52614;SDS011;38508;53.158;6.614;2022-12-07T04:19:38;7.65;;;4.80;;
52614;SDS011;38508;53.158;6.614;2022-12-07T04:22:04;6.93;;;5.30;;
52614;SDS011;38508;53.158;6.614;2022-12-07T04:24:30;15.77;;;5.20;;
52614;SDS011;38508;53.158;6.614;2022-12-07T04:26:56;6.68;;;4.75;;
52614;SDS011;38508;53.158;6.614;2022-12-07T04:29:22;15.32;;;7.55;;
52614;SDS011;38508;53.158;6.614;2022-12-07T04:31:48;11.77;;;5.70;;
52614;SDS011;38508;53.158;6.614;2022-12-07T04:34:14;11.20;;;7.10;;
52614;SDS011;38508;53.158;6.614;2022-12-07T04:36:41;10.18;;;6.68;;
52614;SDS011;38508;53.158;6.614;2022-12-07T04:39:07;9.55;;;4.90;;
52614;SDS011;38508;53.158;6.614;2022-12-07T04:41:38;10.18;;;4.82;;
52614;SDS011;38508;53.158;6.614;2022-12-07T04:44:04;8.23;;;4.15;;
52614;SDS011;38508;53.158;6.614;2022-12-07T04:46:32;8.98;;;4.40;;
52614;SDS011;38508;53.158;6.614;2022-12-07T04:48:58;5.30;;;4.32;;
52614;SDS011;38508;53.158;6.614;2022-12-07T04:51:25;14.90;;;4.70;;
52614;SDS011;38508;53.158;6.614;2022-12-07T04:53:53;10.98;;;4.50;;
52614;SDS011;38508;53.158;6.614;2022-12-07T04:56:19;6.63;;;4.40;;
52614;SDS011;38508;53.158;6.614;2022-12-07T04:58:45;7.25;;;4.57;;
52614;SDS011;38508;53.158;6.614;2022-12-07T05:01:12;6.00;;;4.82;;
52614;SDS011;38508;53.158;6.614;2022-12-07T05:03:38;11.10;;;4.68;;
52614;SDS011;38508;53.158;6.614;2022-12-07T05:06:04;12.93;;;4.80;;
52614;SDS011;38508;53.158;6.614;2022-12-07T05:08:31;9.35;;;4.68;;
52614;SDS011;38508;53.158;6.614;2022-12-07T05:10:58;7.97;;;3.88;;
52614;SDS011;38508;53.158;6.614;2022-12-07T05:13:24;7.78;;;4.00;;
52614;SDS011;38508;53.158;6.614;2022-12-07T05:15:50;9.80;;;3.63;;
52614;SDS011;38508;53.158;6.614;2022-12-07T05:18:15;9.63;;;3.95;;
52614;SDS011;38508;53.158;6.614;2022-12-07T05:20:42;5.70;;;3.38;;
52614;SDS011;38508;53.158;6.614;2022-12-07T05:23:07;4.75;;;2.95;;
52614;SDS011;38508;53.158;6.614;2022-12-07T05:25:33;5.00;;;2.88;;
52614;SDS011;38508;53.158;6.614;2022-12-07T05:27:59;7.00;;;3.03;;
52614;SDS011;38508;53.158;6.614;2022-12-07T05:30:25;8.45;;;2.92;;
52614;SDS011;38508;53.158;6.614;2022-12-07T05:32:52;8.65;;;2.90;;
52614;SDS011;38508;53.158;6.614;2022-12-07T05:35:18;4.13;;;2.30;;
52614;SDS011;38508;53.158;6.614;2022-12-07T05:37:44;4.80;;;2.30;;
52614;SDS011;38508;53.158;6.614;2022-12-07T05:40:10;6.00;;;1.77;;
52614;SDS011;38508;53.158;6.614;2022-12-07T05:42:37;5.38;;;2.50;;
52614;SDS011;38508;53.158;6.614;2022-12-07T05:45:04;3.83;;;2.03;;
52614;SDS011;38508;53.158;6.614;2022-12-07T05:47:30;5.70;;;2.03;;
52614;SDS011;38508;53.158;6.614;2022-12-07T05:49:56;2.38;;;1.65;;
52614;SDS011;38508;53.158;6.614;2022-12-07T05:52:21;8.25;;;2.22;;
52614;SDS011;38508;53.158;6.614;2022-12-07T05:54:47;7.47;;;1.98;;
52614;SDS011;38508;53.158;6.614;2022-12-07T05:57:13;4.63;;;1.80;;
52614;SDS011;38508;53.158;6.614;2022-12-07T05:59:39;5.15;;;1.80;;
52614;SDS011;38508;53.158;6.614;2022-12-07T06:02:06;2.17;;;1.98;;
52614;SDS011;38508;53.158;6.614;2022-12-07T06:04:34;6.72;;;2.25;;
52614;SDS011;38508;53.158;6.614;2022-12-07T06:07:01;6.68;;;1.90;;
52614;SDS011;38508;53.158;6.614;2022-12-07T06:09:28;3.92;;;1.90;;
52614;SDS011;38508;53.158;6.614;2022-12-07T06:11:54;7.35;;;2.20;;
52614;SDS011;38508;53.158;6.614;2022-12-07T06:14:39;3.63;;;1.85;;
52614;SDS011;38508;53.158;6.614;2022-12-07T06:17:04;11.73;;;2.50;;
52614;SDS011;38508;53.158;6.614;2022-12-07T06:19:31;3.78;;;2.40;;
52614;SDS011;38508;53.158;6.614;2022-12-07T06:21:56;5.22;;;2.50;;
52614;SDS011;38508;53.158;6.614;2022-12-07T06:24:22;10.70;;;3.33;;
52614;SDS011;38508;53.158;6.614;2022-12-07T06:26:48;18.38;;;3.60;;
52614;SDS011;38508;53.158;6.614;2022-12-07T06:29:14;19.95;;;4.35;;
52614;SDS011;38508;53.158;6.614;2022-12-07T06:31:41;10.63;;;4.20;;
52614;SDS011;38508;53.158;6.614;2022-12-07T06:34:11;9.77;;;4.50;;
52614;SDS011;38508;53.158;6.614;2022-12-07T06:36:39;11.57;;;4.57;;
52614;SDS011;38508;53.158;6.614;2022-12-07T06:39:05;17.60;;;4.80;;
52614;SDS011;38508;53.158;6.614;2022-12-07T06:41:34;10.90;;;4.22;;
52614;SDS011;38508;53.158;6.614;2022-12-07T06:44:03;11.80;;;4.00;;
52614;SDS011;38508;53.158;6.614;2022-12-07T06:46:29;14.73;;;4.97;;
52614;SDS011;38508;53.158;6.614;2022-12-07T06:48:55;5.13;;;4.20;;
52614;SDS011;38508;53.158;6.614;2022-12-07T06:51:20;7.55;;;3.70;;
52614;SDS011;38508;53.158;6.614;2022-12-07T06:53:46;11.45;;;3.75;;
52614;SDS011;38508;53.158;6.614;2022-12-07T06:56:12;6.43;;;3.10;;
52614;SDS011;38508;53.158;6.614;2022-12-07T06:58:38;6.95;;;3.08;;
52614;SDS011;38508;53.158;6.614;2022-12-07T07:01:10;6.13;;;3.25;;
52614;SDS011;38508;53.158;6.614;2022-12-07T07:03:37;4.05;;;2.80;;
52614;SDS011;38508;53.158;6.614;2022-12-07T07:06:04;7.47;;;2.85;;
52614;SDS011;38508;53.158;6.614;2022-12-07T07:08:30;7.18;;;2.85;;
52614;SDS011;38508;53.158;6.614;2022-12-07T07:10:56;15.15;;;3.30;;
52614;SDS011;38508;53.158;6.614;2022-12-07T07:13:22;9.93;;;3.50;;
52614;SDS011;38508;53.158;6.614;2022-12-07T07:15:47;9.30;;;3.60;;
52614;SDS011;38508;53.158;6.614;2022-12-07T07:18:13;5.18;;;3.60;;
52614;SDS011;38508;53.158;6.614;2022-12-07T07:20:39;9.77;;;4.00;;
52614;SDS011;38508;53.158;6.614;2022-12-07T07:23:05;9.63;;;3.80;;
52614;SDS011;38508;53.158;6.614;2022-12-07T07:25:31;4.68;;;4.25;;
52614;SDS011;38508;53.158;6.614;2022-12-07T07:27:57;14.10;;;4.80;;
52614;SDS011;38508;53.158;6.614;2022-12-07T07:30:23;9.60;;;4.80;;
52614;SDS011;38508;53.158;6.614;2022-12-07T07:32:49;11.00;;;5.00;;
52614;SDS011;38508;53.158;6.614;2022-12-07T07:35:15;14.07;;;4.65;;
52614;SDS011;38508;53.158;6.614;2022-12-07T07:37:41;12.45;;;4.63;;
52614;SDS011;38508;53.158;6.614;2022-12-07T07:40:07;6.38;;;4.32;;
52614;SDS011;38508;53.158;6.614;2022-12-07T07:42:34;13.45;;;4.40;;
52614;SDS011;38508;53.158;6.614;2022-12-07T07:44:59;9.43;;;5.00;;
52614;SDS011;38508;53.158;6.614;2022-12-07T07:47:25;11.70;;;4.50;;
52614;SDS011;38508;53.158;6.614;2022-12-07T07:49:51;9.73;;;4.43;;
52614;SDS011;38508;53.158;6.614;2022-12-07T07:52:16;9.55;;;3.72;;
52614;SDS011;38508;53.158;6.614;2022-12-07T07:54:42;10.55;;;4.30;;
52614;SDS011;38508;53.158;6.614;2022-12-07T07:57:08;7.43;;;4.78;;
52614;SDS011;38508;53.158;6.614;2022-12-07T07:59:33;7.00;;;4.47;;
52614;SDS011;38508;53.158;6.614;2022-12-07T08:01:59;9.70;;;5.10;;
52614;SDS011;38508;53.158;6.614;2022-12-07T08:04:24;9.07;;;4.32;;
52614;SDS011;38508;53.158;6.614;2022-12-07T08:06:51;3.80;;;3.05;;
52614;SDS011;38508;53.158;6.614;2022-12-07T08:09:16;6.57;;;3.67;;
52614;SDS011;38508;53.158;6.614;2022-12-07T08:11:42;5.65;;;3.50;;
52614;SDS011;38508;53.158;6.614;2022-12-07T08:14:08;10.93;;;3.97;;
52614;SDS011;38508;53.158;6.614;2022-12-07T08:16:35;9.55;;;4.30;;
52614;SDS011;38508;53.158;6.614;2022-12-07T08:19:04;7.68;;;3.58;;
52614;SDS011;38508;53.158;6.614;2022-12-07T08:21:29;7.55;;;3.75;;
52614;SDS011;38508;53.158;6.614;2022-12-07T08:23:56;6.97;;;3.20;;
52614;SDS011;38508;53.158;6.614;2022-12-07T08:26:22;5.15;;;2.88;;
52614;SDS011;38508;53.158;6.614;2022-12-07T08:28:47;4.97;;;2.80;;
52614;SDS011;38508;53.158;6.614;2022-12-07T08:31:17;7.43;;;2.80;;
52614;SDS011;38508;53.158;6.614;2022-12-07T08:33:47;5.93;;;3.13;;
52614;SDS011;38508;53.158;6.614;2022-12-07T08:36:13;12.68;;;2.97;;
52614;SDS011;38508;53.158;6.614;2022-12-07T08:38:39;9.32;;;3.13;;
52614;SDS011;38508;53.158;6.614;2022-12-07T08:41:06;19.73;;;5.45;;
52614;SDS011;38508;53.158;6.614;2022-12-07T08:43:33;12.75;;;5.30;;
52614;SDS011;38508;53.158;6.614;2022-12-07T08:48:31;11.50;;;4.95;;
52614;SDS011;38508;53.158;6.614;2022-12-07T08:51:00;13.10;;;5.40;;
52614;SDS011;38508;53.158;6.614;2022-12-07T08:53:28;13.18;;;4.30;;
52614;SDS011;38508;53.158;6.614;2022-12-07T08:55:54;12.32;;;4.35;;
52614;SDS011;38508;53.158;6.614;2022-12-07T08:58:22;17.98;;;5.20;;
52614;SDS011;38508;53.158;6.614;2022-12-07T09:00:48;23.17;;;5.88;;
52614;SDS011;38508;53.158;6.614;2022-12-07T09:03:13;18.45;;;5.20;;
52614;SDS011;38508;53.158;6.614;2022-12-07T09:05:39;15.30;;;4.60;;
52614;SDS011;38508;53.158;6.614;2022-12-07T09:08:05;10.98;;;4.82;;
52614;SDS011;38508;53.158;6.614;2022-12-07T09:10:32;17.02;;;5.90;;
52614;SDS011;38508;53.158;6.614;2022-12-07T09:12:57;9.38;;;5.22;;
52614;SDS011;38508;53.158;6.614;2022-12-07T09:15:26;16.70;;;7.45;;
52614;SDS011;38508;53.158;6.614;2022-12-07T09:17:53;15.80;;;6.10;;
52614;SDS011;38508;53.158;6.614;2022-12-07T09:20:19;18.25;;;5.85;;
52614;SDS011;38508;53.158;6.614;2022-12-07T09:22:45;14.80;;;4.90;;
52614;SDS011;38508;53.158;6.614;2022-12-07T09:25:10;21.42;;;5.70;;
52614;SDS011;38508;53.158;6.614;2022-12-07T09:27:36;18.23;;;6.20;;
52614;SDS011;38508;53.158;6.614;2022-12-07T09:30:02;14.05;;;5.32;;
52614;SDS011;38508;53.158;6.614;2022-12-07T09:32:29;11.68;;;4.93;;
52614;SDS011;38508;53.158;6.614;2022-12-07T09:34:55;20.15;;;5.85;;
52614;SDS011;38508;53.158;6.614;2022-12-07T09:37:20;12.38;;;4.68;;
52614;SDS011;38508;53.158;6.614;2022-12-07T09:39:46;14.35;;;4.68;;
52614;SDS011;38508;53.158;6.614;2022-12-07T09:42:54;8.30;;;3.95;;
52614;SDS011;38508;53.158;6.614;2022-12-07T09:45:04;8.57;;;4.40;;
52614;SDS011;38508;53.158;6.614;2022-12-07T09:47:32;10.82;;;4.88;;
52614;SDS011;38508;53.158;6.614;2022-12-07T09:50:06;6.03;;;4.05;;
52614;SDS011;38508;53.158;6.614;2022-12-07T09:52:38;8.23;;;3.67;;
52614;SDS011;38508;53.158;6.614;2022-12-07T09:55:08;14.90;;;4.00;;
52614;SDS011;38508;53.158;6.614;2022-12-07T09:57:38;10.93;;;4.68;;
52614;SDS011;38508;53.158;6.614;2022-12-07T10:00:07;10.68;;;4.45;;
52614;SDS011;38508;53.158;6.614;2022-12-07T10:05:25;16.88;;;4.80;;
52614;SDS011;38508;53.158;6.614;2022-12-07T10:07:56;17.05;;;4.80;;
52614;SDS011;38508;53.158;6.614;2022-12-07T10:10:31;9.88;;;4.13;;
52614;SDS011;38508;53.158;6.614;2022-12-07T10:13:10;13.57;;;4.57;;
52614;SDS011;38508;53.158;6.614;2022-12-07T10:18:30;14.82;;;4.53;;
52614;SDS011;38508;53.158;6.614;2022-12-07T10:21:25;11.18;;;3.97;;
52614;SDS011;38508;53.158;6.614;2022-12-07T10:26:36;7.53;;;3.60;;
52614;SDS011;38508;53.158;6.614;2022-12-07T10:29:14;8.75;;;3.53;;
52614;SDS011;38508;53.158;6.614;2022-12-07T10:31:46;13.00;;;4.40;;
52614;SDS011;38508;53.158;6.614;2022-12-07T10:34:23;8.05;;;3.33;;
52614;SDS011;38508;53.158;6.614;2022-12-07T10:37:17;8.70;;;3.55;;
52614;SDS011;38508;53.158;6.614;2022-12-07T10:39:44;15.73;;;4.45;;
52614;SDS011;38508;53.158;6.614;2022-12-07T10:42:17;12.73;;;4.88;;
52614;SDS011;38508;53.158;6.614;2022-12-07T10:44:48;12.70;;;4.20;;
52614;SDS011;38508;53.158;6.614;2022-12-07T10:47:24;7.20;;;3.50;;
52614;SDS011;38508;53.158;6.614;2022-12-07T10:55:30;12.15;;;3.00;;
52614;SDS011;38508;53.158;6.614;2022-12-07T11:03:53;6.25;;;2.75;;
52614;SDS011;38508;53.158;6.614;2022-12-07T11:06:58;9.90;;;3.25;;
52614;SDS011;38508;53.158;6.614;2022-12-07T11:15:49;17.77;;;4.95;;
52614;SDS011;38508;53.158;6.614;2022-12-07T11:20:54;8.48;;;3.53;;
52614;SDS011;38508;53.158;6.614;2022-12-07T11:37:00;10.25;;;4.00;;
52614;SDS011;38508;53.158;6.614;2022-12-07T11:41:55;8.38;;;4.40;;
52614;SDS011;38508;53.158;6.614;2022-12-07T11:44:44;13.55;;;4.07;;
52614;SDS011;38508;53.158;6.614;2022-12-07T11:47:28;6.70;;;4.20;;
52614;SDS011;38508;53.158;6.614;2022-12-07T11:52:57;7.68;;;3.72;;
52614;SDS011;38508;53.158;6.614;2022-12-07T12:03:46;6.32;;;3.05;;
52614;SDS011;38508;53.158;6.614;2022-12-07T12:06:14;6.55;;;3.00;;
52614;SDS011;38508;53.158;6.614;2022-12-07T12:08:47;6.95;;;3.63;;
52614;SDS011;38508;53.158;6.614;2022-12-07T12:11:56;7.57;;;3.05;;
52614;SDS011;38508;53.158;6.614;2022-12-07T12:14:46;11.60;;;3.30;;
52614;SDS011;38508;53.158;6.614;2022-12-07T12:20:06;6.93;;;3.28;;
52614;SDS011;38508;53.158;6.614;2022-12-07T12:22:44;6.75;;;3.30;;
52614;SDS011;38508;53.158;6.614;2022-12-07T12:27:52;9.65;;;3.35;;
52614;SDS011;38508;53.158;6.614;2022-12-07T12:33:14;8.85;;;2.72;;
52614;SDS011;38508;53.158;6.614;2022-12-07T12:36:27;11.70;;;3.20;;
52614;SDS011;38508;53.158;6.614;2022-12-07T12:46:48;7.80;;;2.47;;
52614;SDS011;38508;53.158;6.614;2022-12-07T12:51:45;11.07;;;2.30;;
52614;SDS011;38508;53.158;6.614;2022-12-07T12:54:14;7.10;;;1.80;;
52614;SDS011;38508;53.158;6.614;2022-12-07T13:01:46;15.75;;;3.85;;
52614;SDS011;38508;53.158;6.614;2022-12-07T13:04:24;6.00;;;2.70;;
52614;SDS011;38508;53.158;6.614;2022-12-07T13:06:52;9.25;;;2.10;;
52614;SDS011;38508;53.158;6.614;2022-12-07T13:11:56;10.48;;;2.58;;
52614;SDS011;38508;53.158;6.614;2022-12-07T13:14:37;6.22;;;2.70;;
52614;SDS011;38508;53.158;6.614;2022-12-07T13:20:01;9.20;;;2.80;;
52614;SDS011;38508;53.158;6.614;2022-12-07T13:25:05;6.15;;;3.17;;
52614;SDS011;38508;53.158;6.614;2022-12-07T13:27:42;9.35;;;3.20;;
52614;SDS011;38508;53.158;6.614;2022-12-07T13:30:17;8.68;;;2.92;;
52614;SDS011;38508;53.158;6.614;2022-12-07T13:32:55;4.93;;;2.60;;
52614;SDS011;38508;53.158;6.614;2022-12-07T13:35:28;6.70;;;2.60;;
52614;SDS011;38508;53.158;6.614;2022-12-07T13:37:59;5.82;;;2.40;;
52614;SDS011;38508;53.158;6.614;2022-12-07T13:40:27;3.95;;;2.47;;
52614;SDS011;38508;53.158;6.614;2022-12-07T13:42:57;3.95;;;2.70;;
52614;SDS011;38508;53.158;6.614;2022-12-07T13:45:26;4.75;;;2.80;;
52614;SDS011;38508;53.158;6.614;2022-12-07T13:48:31;4.93;;;3.33;;
52614;SDS011;38508;53.158;6.614;2022-12-07T13:51:17;6.00;;;3.78;;
52614;SDS011;38508;53.158;6.614;2022-12-07T13:53:47;3.95;;;3.55;;
52614;SDS011;38508;53.158;6.614;2022-12-07T13:56:39;4.75;;;2.90;;
52614;SDS011;38508;53.158;6.614;2022-12-07T13:59:10;8.98;;;3.50;;
52614;SDS011;38508;53.158;6.614;2022-12-07T14:01:40;5.97;;;3.35;;
52614;SDS011;38508;53.158;6.614;2022-12-07T14:07:17;5.53;;;2.60;;
52614;SDS011;38508;53.158;6.614;2022-12-07T14:09:55;7.07;;;2.85;;
52614;SDS011;38508;53.158;6.614;2022-12-07T14:12:23;2.90;;;2.70;;
52614;SDS011;38508;53.158;6.614;2022-12-07T14:14:50;3.92;;;2.90;;
52614;SDS011;38508;53.158;6.614;2022-12-07T14:17:19;3.63;;;2.80;;
52614;SDS011;38508;53.158;6.614;2022-12-07T14:19:57;4.70;;;3.03;;
52614;SDS011;38508;53.158;6.614;2022-12-07T14:22:31;3.63;;;2.58;;
52614;SDS011;38508;53.158;6.614;2022-12-07T14:25:18;5.55;;;2.97;;
52614;SDS011;38508;53.158;6.614;2022-12-07T14:27:50;4.88;;;4.00;;
52614;SDS011;38508;53.158;6.614;2022-12-07T14:30:22;4.30;;;3.90;;
52614;SDS011;38508;53.158;6.614;2022-12-07T14:32:53;4.32;;;3.92;;
52614;SDS011;38508;53.158;6.614;2022-12-07T14:35:24;6.43;;;4.95;;
52614;SDS011;38508;53.158;6.614;2022-12-07T14:37:50;9.05;;;4.38;;
52614;SDS011;38508;53.158;6.614;2022-12-07T14:40:17;7.28;;;4.18;;
52614;SDS011;38508;53.158;6.614;2022-12-07T14:43:02;5.97;;;5.47;;
52614;SDS011;38508;53.158;6.614;2022-12-07T14:45:30;10.93;;;5.32;;
52614;SDS011;38508;53.158;6.614;2022-12-07T14:47:56;8.55;;;5.90;;
52614;SDS011;38508;53.158;6.614;2022-12-07T14:50:21;6.45;;;4.90;;
52614;SDS011;38508;53.158;6.614;2022-12-07T14:53:00;4.93;;;4.43;;
52614;SDS011;38508;53.158;6.614;2022-12-07T14:55:34;11.25;;;4.70;;
52614;SDS011;38508;53.158;6.614;2022-12-07T14:58:00;7.57;;;4.18;;
52614;SDS011;38508;53.158;6.614;2022-12-07T15:00:26;6.72;;;4.40;;
52614;SDS011;38508;53.158;6.614;2022-12-07T15:02:52;10.02;;;4.53;;
52614;SDS011;38508;53.158;6.614;2022-12-07T15:05:19;8.35;;;4.82;;
52614;SDS011;38508;53.158;6.614;2022-12-07T15:07:45;14.57;;;5.30;;
52614;SDS011;38508;53.158;6.614;2022-12-07T15:10:13;11.43;;;4.55;;
52614;SDS011;38508;53.158;6.614;2022-12-07T15:12:40;9.88;;;4.45;;
52614;SDS011;38508;53.158;6.614;2022-12-07T15:15:07;8.88;;;4.53;;
52614;SDS011;38508;53.158;6.614;2022-12-07T15:17:33;9.52;;;3.97;;
52614;SDS011;38508;53.158;6.614;2022-12-07T15:19:58;6.55;;;4.00;;
52614;SDS011;38508;53.158;6.614;2022-12-07T15:22:24;7.50;;;4.05;;
52614;SDS011;38508;53.158;6.614;2022-12-07T15:24:50;9.93;;;4.03;;
52614;SDS011;38508;53.158;6.614;2022-12-07T15:27:16;4.32;;;3.92;;
52614;SDS011;38508;53.158;6.614;2022-12-07T15:29:41;9.55;;;4.03;;
52614;SDS011;38508;53.158;6.614;2022-12-07T15:32:07;9.02;;;3.90;;
52614;SDS011;38508;53.158;6.614;2022-12-07T15:34:34;4.43;;;3.50;;
52614;SDS011;38508;53.158;6.614;2022-12-07T15:36:59;5.43;;;3.38;;
52614;SDS011;38508;53.158;6.614;2022-12-07T15:39:25;8.13;;;3.42;;
52614;SDS011;38508;53.158;6.614;2022-12-07T15:41:51;5.15;;;3.00;;
52614;SDS011;38508;53.158;6.614;2022-12-07T15:44:16;3.60;;;3.28;;
52614;SDS011;38508;53.158;6.614;2022-12-07T15:47:01;4.45;;;3.58;;
52614;SDS011;38508;53.158;6.614;2022-12-07T15:49:27;9.07;;;4.70;;
52614;SDS011;38508;53.158;6.614;2022-12-07T15:51:53;6.78;;;4.07;;
52614;SDS011;38508;53.158;6.614;2022-12-07T15:54:20;6.80;;;3.65;;
52614;SDS011;38508;53.158;6.614;2022-12-07T15:56:48;7.47;;;4.25;;
52614;SDS011;38508;53.158;6.614;2022-12-07T15:59:13;11.88;;;4.40;;
52614;SDS011;38508;53.158;6.614;2022-12-07T16:01:39;8.98;;;4.20;;
52614;SDS011;38508;53.158;6.614;2022-12-07T16:04:05;8.30;;;3.97;;
52614;SDS011;38508;53.158;6.614;2022-12-07T16:06:31;5.13;;;4.05;;
52614;SDS011;38508;53.158;6.614;2022-12-07T16:08:57;7.85;;;3.90;;
52614;SDS011;38508;53.158;6.614;2022-12-07T16:11:23;9.20;;;4.47;;
52614;SDS011;38508;53.158;6.614;2022-12-07T16:13:48;8.10;;;4.80;;
52614;SDS011;38508;53.158;6.614;2022-12-07T16:16:15;7.25;;;3.92;;
52614;SDS011;38508;53.158;6.614;2022-12-07T16:18:42;7.47;;;3.72;;
52614;SDS011;38508;53.158;6.614;2022-12-07T16:21:10;7.90;;;3.50;;
52614;SDS011;38508;53.158;6.614;2022-12-07T16:23:36;6.25;;;4.03;;
52614;SDS011;38508;53.158;6.614;2022-12-07T16:26:10;8.23;;;3.90;;
52614;SDS011;38508;53.158;6.614;2022-12-07T16:28:41;10.85;;;4.07;;
52614;SDS011;38508;53.158;6.614;2022-12-07T16:31:08;10.45;;;4.57;;
52614;SDS011;38508;53.158;6.614;2022-12-07T16:33:39;5.53;;;4.30;;
52614;SDS011;38508;53.158;6.614;2022-12-07T16:36:05;8.32;;;4.53;;
52614;SDS011;38508;53.158;6.614;2022-12-07T16:38:33;14.82;;;5.15;;
52614;SDS011;38508;53.158;6.614;2022-12-07T16:40:59;5.55;;;4.68;;
52614;SDS011;38508;53.158;6.614;2022-12-07T16:43:25;10.32;;;4.50;;
52614;SDS011;38508;53.158;6.614;2022-12-07T16:45:51;6.38;;;4.15;;
52614;SDS011;38508;53.158;6.614;2022-12-07T16:48:17;8.35;;;5.03;;
52614;SDS011;38508;53.158;6.614;2022-12-07T16:50:43;9.40;;;6.20;;
52614;SDS011;38508;53.158;6.614;2022-12-07T16:53:10;9.80;;;4.53;;
52614;SDS011;38508;53.158;6.614;2022-12-07T16:55:39;8.73;;;6.43;;
52614;SDS011;38508;53.158;6.614;2022-12-07T16:58:07;8.68;;;4.63;;
52614;SDS011;38508;53.158;6.614;2022-12-07T17:00:34;5.20;;;4.70;;
52614;SDS011;38508;53.158;6.614;2022-12-07T17:03:01;10.15;;;5.00;;